Time;durP1;ratioP1;P1;durP2;ratioP2;P2;SDS_P1;SDS_P2;PMS_P1;PMS_P2;Temp;Humidity;BMP_temperature;BMP_pressure;BME280_temperature;BME280_humidity;BME280_pressure;Samples;Min_cycle;Max_cycle;Signal;HPM_P1;HPM_P2
2022/05/21 00:02:09;;;;;;;7.88;7.15;;;21.20;99.40;;;;;;12664629;23;20208;-83
2022/05/21 00:07:12;;;;;;;4.85;4.40;;;20.80;99.90;;;;;;12690088;23;20169;-83
2022/05/21 00:12:14;;;;;;;17.52;12.52;;;20.50;99.90;;;;;;12671894;23;20528;-83
2022/05/21 00:17:16;;;;;;;16.33;11.80;;;20.60;99.90;;;;;;12689921;23;20193;-83
2022/05/21 00:22:19;;;;;;;11.70;9.15;;;20.60;99.90;;;;;;12689672;23;20640;-83
2022/05/21 00:27:21;;;;;;;14.82;10.05;;;20.40;99.90;;;;;;12671342;23;20236;-83
2022/05/21 00:32:24;;;;;;;10.90;9.38;;;20.10;99.90;;;;;;12671174;23;20240;-83
2022/05/21 00:37:26;;;;;;;13.23;9.80;;;19.60;99.90;;;;;;12688536;23;20166;-83
2022/05/21 00:42:29;;;;;;;10.30;9.18;;;19.40;99.90;;;;;;12670508;23;20723;-82
2022/05/21 00:47:32;;;;;;;9.23;8.27;;;19.10;99.90;;;;;;12671147;23;20690;-82
2022/05/21 00:52:36;;;;;;;9.07;8.25;;;19.10;99.90;;;;;;12663697;23;20236;-83
2022/05/21 00:57:44;;;;;;;8.55;6.13;;;19.00;99.90;;;;;;12658740;23;20197;-83
2022/05/21 01:02:56;;;;;;;8.32;7.47;;;19.00;99.90;;;;;;12677073;23;20173;-82
2022/05/21 01:08:01;;;;;;;8.48;7.68;;;19.30;99.90;;;;;;12651768;23;20244;-83
2022/05/21 01:13:08;;;;;;;8.27;7.57;;;19.50;99.90;;;;;;12660051;23;20212;-83
2022/05/21 01:18:11;;;;;;;5.32;4.78;;;20.20;99.90;;;;;;12652944;23;20532;-83
2022/05/21 01:23:15;;;;;;;3.33;3.03;;;20.30;99.90;;;;;;12675286;23;20201;-83
2022/05/21 01:28:21;;;;;;;5.13;4.00;;;21.20;99.90;;;;;;12665594;23;20651;-83
2022/05/21 01:33:27;;;;;;;2.95;2.60;;;21.70;99.90;;;;;;12630264;23;20201;-83
2022/05/21 01:38:30;;;;;;;2.90;2.70;;;21.50;98.20;;;;;;12659270;23;20232;-86
2022/05/21 01:48:54;;;;;;;3.83;3.33;;;21.40;99.90;;;;;;12673624;23;20181;-83
2022/05/21 01:53:56;;;;;;;3.10;2.83;;;21.80;98.60;;;;;;12657979;23;20576;-84
2022/05/21 01:58:59;;;;;;;3.40;3.10;;;21.40;98.50;;;;;;12657391;23;20197;-84
2022/05/21 02:04:01;;;;;;;3.10;2.80;;;22.30;95.40;;;;;;12649431;23;20173;-84
2022/05/21 02:09:04;;;;;;;3.97;3.00;;;22.60;94.10;;;;;;12658184;23;20169;-85
2022/05/21 02:14:07;;;;;;;4.93;2.47;;;22.80;93.20;;;;;;12656862;23;20196;-84
2022/05/21 02:19:10;;;;;;;3.30;3.00;;;22.90;92.80;;;;;;12658000;23;20220;-84
2022/05/21 02:24:13;;;;;;;3.13;2.63;;;22.90;92.80;;;;;;12656894;23;20200;-84
2022/05/21 02:29:15;;;;;;;4.13;2.97;;;22.90;92.80;;;;;;12656247;23;20177;-84
2022/05/21 02:34:18;;;;;;;3.30;3.00;;;22.90;92.90;;;;;;12629207;23;20201;-84
2022/05/21 02:39:31;;;;;;;4.18;3.72;;;22.90;93.00;;;;;;12656347;23;20179;-84
2022/05/21 02:44:33;;;;;;;3.65;3.35;;;22.90;93.20;;;;;;12646709;23;20232;-84
2022/05/21 02:49:36;;;;;;;3.55;3.25;;;22.90;93.20;;;;;;12676239;23;20866;-84
2022/05/21 02:54:38;;;;;;;4.20;3.90;;;22.90;93.40;;;;;;12644443;23;20208;-84
2022/05/21 02:59:41;;;;;;;4.75;4.35;;;22.80;93.50;;;;;;12659493;23;20173;-85
2022/05/21 03:04:44;;;;;;;7.55;3.45;;;22.80;93.80;;;;;;12659130;23;20173;-84
2022/05/21 03:15:08;;;;;;;3.67;3.38;;;22.70;94.40;;;;;;12660260;23;20247;-85
2022/05/21 03:20:13;;;;;;;5.80;3.08;;;22.50;94.50;;;;;;12659634;23;20169;-84
2022/05/21 03:25:16;;;;;;;4.22;3.67;;;22.20;94.30;;;;;;12661277;23;20248;-85
2022/05/21 03:30:25;;;;;;;3.45;3.15;;;22.50;94.00;;;;;;12664957;23;20236;-84
2022/05/21 03:35:27;;;;;;;3.30;3.03;;;22.40;93.90;;;;;;12636635;23;20209;-84
2022/05/21 03:40:31;;;;;;;3.20;2.88;;;22.20;94.10;;;;;;12662733;23;20228;-84
2022/05/21 03:45:34;;;;;;;2.75;2.55;;;22.40;93.60;;;;;;12681369;23;20172;-84
2022/05/21 03:50:37;;;;;;;3.50;3.25;;;22.40;93.50;;;;;;12662618;23;20184;-84
2022/05/21 03:55:39;;;;;;;9.75;3.55;;;22.50;93.00;;;;;;12659410;23;20209;-85
2022/05/21 04:00:42;;;;;;;3.17;2.85;;;22.40;92.80;;;;;;12627056;23;20185;-84
2022/05/21 04:05:44;;;;;;;2.70;2.50;;;22.40;92.70;;;;;;12682984;23;20178;-85
2022/05/21 04:10:48;;;;;;;2.83;2.63;;;22.30;92.70;;;;;;12725073;23;20153;-84
2022/05/21 04:15:50;;;;;;;2.40;2.20;;;22.40;91.90;;;;;;12699870;23;20208;-85
2022/05/21 04:20:52;;;;;;;2.72;2.53;;;22.30;92.30;;;;;;12725486;23;20176;-84
2022/05/21 04:25:55;;;;;;;2.80;2.60;;;22.50;91.80;;;;;;12724443;23;20204;-84
2022/05/21 04:30:58;;;;;;;2.50;2.33;;;22.30;91.90;;;;;;12692664;23;20173;-84
2022/05/21 04:36:19;;;;;;;2.30;2.10;;;22.50;91.40;;;;;;12717036;23;20152;-82
2022/05/21 04:41:22;;;;;;;3.05;2.22;;;22.30;91.30;;;;;;12719012;23;20157;-83
2022/05/21 04:46:25;;;;;;;8.93;2.30;;;22.50;91.10;;;;;;12740221;23;20188;-83
2022/05/21 04:51:28;;;;;;;2.00;1.90;;;22.00;91.30;;;;;;12721972;23;20177;-84
2022/05/21 04:56:31;;;;;;;2.78;2.28;;;22.40;90.70;;;;;;12723529;23;20180;-84
2022/05/21 05:01:41;;;;;;;2.92;2.10;;;22.40;90.30;;;;;;12717820;23;20174;-84
2022/05/21 05:06:44;;;;;;;2.05;1.80;;;22.40;90.20;;;;;;12725055;23;20161;-85
2022/05/21 05:11:47;;;;;;;2.17;1.45;;;22.20;89.80;;;;;;12724004;23;20172;-84
2022/05/21 05:16:49;;;;;;;2.25;1.40;;;21.90;89.60;;;;;;12723287;23;20153;-83
2022/05/21 05:21:52;;;;;;;4.00;1.38;;;22.30;88.40;;;;;;12690711;23;20161;-83
2022/05/21 05:26:56;;;;;;;2.55;1.60;;;22.30;87.90;;;;;;12724320;23;20180;-84
2022/05/21 05:31:59;;;;;;;1.58;1.33;;;22.30;87.20;;;;;;12725948;23;20208;-84
2022/05/21 05:37:03;;;;;;;4.00;1.00;;;22.40;86.20;;;;;;12743938;23;20165;-84
2022/05/21 05:42:05;;;;;;;1.50;1.40;;;22.30;85.20;;;;;;12725681;23;20196;-84
2022/05/21 05:47:08;;;;;;;3.17;1.50;;;22.20;84.90;;;;;;12723671;23;20193;-83
2022/05/21 05:52:10;;;;;;;1.60;1.50;;;22.30;84.00;;;;;;12692729;23;20239;-84
2022/05/21 05:57:13;;;;;;;4.60;1.20;;;22.30;84.00;;;;;;12751457;23;20434;-83
2022/05/21 06:07:51;;;;;;;1.08;1.00;;;22.10;80.70;;;;;;12779630;23;20230;-83
2022/05/21 06:12:53;;;;;;;4.30;1.25;;;22.00;83.40;;;;;;12756714;23;20188;-82
2022/05/21 06:17:56;;;;;;;3.80;1.20;;;22.20;82.60;;;;;;12741047;23;20165;-82
2022/05/21 06:23:00;;;;;;;1.20;1.10;;;22.20;82.50;;;;;;12730510;23;20219;-82
2022/05/21 06:39:18;;;;;;;3.50;1.35;;;22.20;81.80;;;;;;12509864;23;1939288;-82
2022/05/21 06:44:21;;;;;;;3.50;1.42;;;22.30;81.30;;;;;;12665394;23;20248;-83
2022/05/21 06:49:26;;;;;;;6.43;1.10;;;22.20;81.70;;;;;;12666846;23;20185;-82
2022/05/21 06:54:29;;;;;;;1.48;1.20;;;22.30;81.80;;;;;;12682771;23;20249;-82
2022/05/21 06:59:32;;;;;;;1.55;1.42;;;22.30;82.00;;;;;;12671960;23;20184;-82
2022/05/21 07:10:00;;;;;;;1.75;1.40;;;22.30;81.90;;;;;;12673661;23;20583;-83
2022/05/21 07:15:05;;;;;;;1.75;1.15;;;22.30;82.10;;;;;;12691512;23;20260;-83
2022/05/21 07:20:11;;;;;;;1.85;1.40;;;22.40;81.70;;;;;;12670924;23;20177;-83
2022/05/21 07:25:18;;;;;;;4.95;1.38;;;22.30;81.60;;;;;;12671646;23;20181;-82
2022/05/21 07:30:20;;;;;;;1.55;1.20;;;22.30;81.40;;;;;;12695715;23;20240;-82
2022/05/21 07:35:25;;;;;;;2.88;1.70;;;22.30;81.20;;;;;;12670526;23;20201;-83
2022/05/21 07:40:27;;;;;;;1.13;1.05;;;21.90;81.30;;;;;;12670417;23;20196;-83
2022/05/21 07:45:32;;;;;;;1.35;1.08;;;22.10;81.60;;;;;;12694170;23;20204;-82
2022/05/21 07:50:34;;;;;;;4.93;1.27;;;22.10;81.00;;;;;;12694642;23;20170;-82
2022/05/21 07:55:36;;;;;;;1.40;1.20;;;22.00;80.60;;;;;;12679249;23;20193;-83
2022/05/21 08:00:39;;;;;;;2.63;1.33;;;22.00;81.00;;;;;;12694531;23;20500;-82
2022/05/21 08:05:43;;;;;;;2.17;1.02;;;21.60;81.90;;;;;;12693897;23;20189;-83
2022/05/21 08:10:46;;;;;;;3.15;1.35;;;17.90;88.50;;;;;;12670679;23;20173;-83
2022/05/21 08:15:49;;;;;;;13.32;2.33;;;17.80;87.80;;;;;;12671638;23;20248;-83
2022/05/21 08:20:53;;;;;;;9.18;1.85;;;20.50;92.00;;;;;;12666483;23;20173;-83
2022/05/21 08:31:17;;;;;;;6.47;1.95;;;21.80;84.20;;;;;;12692501;23;20232;-83
2022/05/21 08:36:20;;;;;;;5.35;1.55;;;21.90;82.50;;;;;;12670895;23;20193;-83
2022/05/21 08:41:26;;;;;;;4.88;1.50;;;22.20;81.30;;;;;;12670352;23;20742;-83
2022/05/21 08:46:31;;;;;;;10.15;1.48;;;22.20;80.70;;;;;;12670474;23;20503;-83
2022/05/21 08:51:46;;;;;;;6.78;1.70;;;22.20;80.00;;;;;;12710419;23;20512;-83
2022/05/21 08:56:55;;;;;;;5.68;1.35;;;21.90;80.10;;;;;;12669391;23;20181;-83
2022/05/21 09:01:58;;;;;;;2.33;1.55;;;19.20;88.50;;;;;;12692478;23;20229;-83
2022/05/21 09:07:07;;;;;;;2.35;1.08;;;21.70;80.50;;;;;;12668974;23;20170;-84
2022/05/21 09:12:22;;;;;;;5.38;1.70;;;20.80;81.00;;;;;;12692885;23;20196;-84
2022/05/21 09:17:26;;;;;;;3.17;1.85;;;20.60;80.70;;;;;;12688195;23;20635;-83
2022/05/21 09:22:28;;;;;;;3.72;1.38;;;21.20;81.10;;;;;;12687617;23;20217;-83
2022/05/21 09:28:04;;;;;;;5.50;1.13;;;20.90;74.70;;;;;;12668195;23;20656;-84
2022/05/21 09:33:33;;;;;;;1.45;1.30;;;21.80;78.10;;;;;;12668936;23;20529;-84
2022/05/21 09:38:56;;;;;;;2.97;1.30;;;21.90;74.70;;;;;;12666824;23;20264;-83
2022/05/21 09:49:31;;;;;;;1.88;1.00;;;21.90;76.30;;;;;;12668943;23;20173;-83
2022/05/21 09:54:43;;;;;;;5.05;1.88;;;21.50;76.20;;;;;;12689962;23;20205;-83
2022/05/21 10:00:24;;;;;;;1.55;0.90;;;22.00;75.20;;;;;;12666850;23;20287;-84
2022/05/21 10:05:36;;;;;;;2.15;1.00;;;21.70;76.00;;;;;;12685158;23;20197;-83
2022/05/21 10:11:00;;;;;;;3.63;1.83;;;22.00;74.50;;;;;;12680242;23;20177;-83
2022/05/21 10:16:28;;;;;;;1.40;0.93;;;22.00;74.70;;;;;;12709213;23;20588;-84
2022/05/21 10:22:04;;;;;;;1.27;1.17;;;22.20;73.60;;;;;;12671288;23;20506;-83
2022/05/21 10:27:25;;;;;;;1.83;1.13;;;22.10;73.90;;;;;;12675352;23;20216;-84
2022/05/21 10:32:39;;;;;;;3.72;1.40;;;22.30;73.20;;;;;;12686425;23;20216;-84
2022/05/21 10:38:05;;;;;;;3.53;1.70;;;22.30;72.90;;;;;;12693046;23;20209;-84
2022/05/21 10:43:45;;;;;;;11.63;1.60;;;22.20;72.70;;;;;;12671584;23;20177;-85
2022/05/21 10:49:17;;;;;;;6.97;1.15;;;20.30;70.40;;;;;;12676647;23;20701;-87
2022/05/21 10:54:43;;;;;;;8.60;1.17;;;20.60;71.10;;;;;;12699756;23;20259;-87
2022/05/21 11:00:13;;;;;;;3.53;1.00;;;21.30;69.70;;;;;;12684704;23;20200;-87
2022/05/21 11:05:28;;;;;;;3.13;1.15;;;21.60;69.10;;;;;;12699655;23;20239;-89
2022/05/21 11:10:59;;;;;;;4.43;1.20;;;21.50;69.20;;;;;;12700305;23;20189;-90
2022/05/21 11:16:19;;;;;;;4.63;1.10;;;21.30;69.90;;;;;;12675870;23;20248;-89
2022/05/21 11:21:45;;;;;;;2.80;1.25;;;21.30;70.30;;;;;;12692281;23;20482;-88
2022/05/21 11:26:58;;;;;;;6.68;1.27;;;21.10;70.30;;;;;;12707455;23;20169;-88
2022/05/21 11:37:22;;;;;;;2.10;1.23;;;21.00;71.70;;;;;;12743893;23;20446;-89
2022/05/21 11:42:32;;;;;;;5.00;1.25;;;21.50;70.90;;;;;;12731253;23;20237;-88
2022/05/21 11:47:44;;;;;;;3.38;1.17;;;21.50;70.70;;;;;;12749125;23;20233;-86
2022/05/21 11:52:52;;;;;;;0.93;0.70;;;21.30;71.10;;;;;;12749061;23;20241;-86
2022/05/21 11:58:01;;;;;;;3.40;1.15;;;21.40;70.80;;;;;;12755241;23;20228;-85
2022/05/21 12:03:06;;;;;;;1.02;0.70;;;21.60;70.10;;;;;;12748451;23;20213;-86
2022/05/21 12:08:22;;;;;;;2.35;0.82;;;21.10;71.30;;;;;;12771491;23;20300;-86
2022/05/21 12:13:34;;;;;;;3.20;1.00;;;21.10;71.40;;;;;;12753728;23;20434;-86
2022/05/21 12:18:48;;;;;;;2.70;0.77;;;21.30;71.20;;;;;;12731691;23;20317;-85
2022/05/21 12:23:51;;;;;;;0.90;0.70;;;21.30;71.70;;;;;;12747224;23;20234;-85
2022/05/21 12:28:56;;;;;;;0.95;0.80;;;21.50;71.20;;;;;;12729899;23;20240;-86
2022/05/21 12:34:14;;;;;;;3.35;0.88;;;21.30;71.00;;;;;;12755210;23;20216;-85
2022/05/21 12:39:25;;;;;;;2.78;1.02;;;21.60;71.10;;;;;;12766409;23;20181;-86
2022/05/21 12:44:43;;;;;;;2.13;0.82;;;20.50;74.50;;;;;;12745024;23;20223;-85
2022/05/21 12:49:49;;;;;;;3.80;0.70;;;20.80;77.60;;;;;;12748336;23;20292;-86
2022/05/21 12:55:25;;;;;;;1.63;0.95;;;21.10;73.40;;;;;;12745765;23;20208;-86
2022/05/21 13:00:29;;;;;;;4.47;0.90;;;21.00;74.00;;;;;;12721999;23;20207;-85
2022/05/21 13:05:35;;;;;;;1.00;0.90;;;21.00;74.70;;;;;;12709644;23;20184;-85
2022/05/21 13:10:56;;;;;;;6.88;1.30;;;21.20;74.80;;;;;;12720190;23;20228;-85
2022/05/21 13:16:03;;;;;;;1.13;0.73;;;20.40;83.20;;;;;;12715478;23;20204;-86
2022/05/21 13:21:21;;;;;;;0.60;0.60;;;20.70;78.20;;;;;;12741238;23;20149;-85
2022/05/21 13:26:27;;;;;;;1.13;1.02;;;21.20;78.70;;;;;;12727663;23;20231;-86
2022/05/21 13:31:30;;;;;;;1.75;0.93;;;20.30;80.60;;;;;;12701663;23;20405;-85
2022/05/21 13:36:33;;;;;;;1.85;1.02;;;21.60;77.10;;;;;;12712735;23;20219;-85
2022/05/21 13:41:40;;;;;;;2.33;1.08;;;21.60;77.40;;;;;;12720907;23;20197;-85
2022/05/21 13:46:56;;;;;;;1.85;1.00;;;21.50;78.10;;;;;;12733088;23;20188;-85
2022/05/21 13:51:59;;;;;;;1.90;1.25;;;21.80;76.70;;;;;;12756321;23;20165;-85
2022/05/21 13:57:06;;;;;;;1.30;1.05;;;21.80;77.20;;;;;;12718602;23;20189;-85
2022/05/21 14:02:25;;;;;;;2.70;1.58;;;21.90;76.70;;;;;;12726818;23;20165;-84
2022/05/21 14:07:34;;;;;;;3.10;1.15;;;21.80;76.90;;;;;;12692133;23;20177;-83
2022/05/21 14:12:50;;;;;;;2.17;1.27;;;21.40;77.50;;;;;;12685284;23;20177;-84
2022/05/21 14:18:05;;;;;;;1.85;1.20;;;21.50;77.70;;;;;;12696990;23;20180;-84
2022/05/21 14:23:28;;;;;;;10.27;1.80;;;21.10;79.10;;;;;;12700080;23;20177;-83
2022/05/21 14:28:51;;;;;;;1.50;1.40;;;21.40;78.00;;;;;;12675386;23;20180;-84
2022/05/21 14:33:58;;;;;;;1.58;1.13;;;21.90;76.60;;;;;;12693440;23;20224;-84
2022/05/21 14:39:01;;;;;;;1.42;1.15;;;22.00;76.70;;;;;;12688558;23;20196;-84
2022/05/21 14:44:26;;;;;;;2.25;1.20;;;21.90;76.50;;;;;;12676475;23;20169;-84
2022/05/21 14:49:29;;;;;;;1.95;1.33;;;21.80;75.00;;;;;;12673119;23;20200;-84
2022/05/21 14:54:33;;;;;;;1.08;0.98;;;21.90;76.20;;;;;;12696598;23;20734;-85
2022/05/21 14:59:36;;;;;;;3.20;1.10;;;21.90;75.40;;;;;;12673661;23;20181;-84
2022/05/21 15:04:39;;;;;;;1.77;1.13;;;22.00;75.50;;;;;;12674147;23;20224;-85
2022/05/21 15:09:41;;;;;;;2.38;1.10;;;21.80;75.60;;;;;;12697084;23;20221;-86
2022/05/21 15:14:44;;;;;;;1.92;1.15;;;21.80;75.20;;;;;;12693399;23;20320;-86
2022/05/21 15:19:46;;;;;;;1.27;1.15;;;21.70;74.80;;;;;;12677877;23;20212;-86
2022/05/21 15:24:49;;;;;;;2.05;1.23;;;21.60;75.30;;;;;;12675331;23;20173;-86
2022/05/21 15:29:51;;;;;;;2.30;1.10;;;21.20;75.80;;;;;;12673185;23;20196;-86
2022/05/21 15:34:53;;;;;;;2.60;1.00;;;21.10;76.00;;;;;;12695581;23;20200;-86
2022/05/21 15:39:56;;;;;;;1.45;1.15;;;21.30;76.20;;;;;;12694166;23;20244;-86
2022/05/21 15:44:59;;;;;;;2.92;1.30;;;21.10;76.50;;;;;;12689144;23;20220;-86
2022/05/21 15:50:02;;;;;;;1.35;0.95;;;21.20;76.50;;;;;;12688229;23;20197;-84
2022/05/21 15:55:06;;;;;;;0.70;0.65;;;20.60;79.60;;;;;;12672472;23;20280;-85
2022/05/21 16:00:10;;;;;;;1.58;1.10;;;19.90;81.50;;;;;;12672301;23;20165;-85
2022/05/21 16:05:15;;;;;;;1.80;1.10;;;20.80;78.70;;;;;;12688376;23;20177;-84
2022/05/21 16:10:18;;;;;;;2.42;1.05;;;21.20;77.70;;;;;;12669768;23;20189;-85
2022/05/21 16:15:27;;;;;;;1.33;0.98;;;21.30;77.30;;;;;;12693976;23;20509;-85
2022/05/21 16:20:30;;;;;;;1.98;0.85;;;21.30;77.10;;;;;;12670037;23;20788;-85
2022/05/21 16:25:33;;;;;;;1.92;1.20;;;20.90;78.70;;;;;;12694448;23;20176;-84
2022/05/21 16:30:38;;;;;;;1.30;1.20;;;21.50;76.90;;;;;;12671133;23;20169;-84
2022/05/21 16:35:40;;;;;;;1.73;1.33;;;20.40;80.50;;;;;;12693101;23;20259;-85
2022/05/21 16:40:42;;;;;;;1.38;1.13;;;21.20;78.70;;;;;;12668079;23;20205;-85
2022/05/21 16:45:46;;;;;;;2.15;1.38;;;21.30;78.60;;;;;;12670946;23;20229;-84
2022/05/21 16:50:49;;;;;;;1.20;1.10;;;21.30;78.90;;;;;;12668931;23;20243;-85
2022/05/21 16:55:51;;;;;;;0.90;0.85;;;20.90;79.40;;;;;;12690586;23;20201;-85
2022/05/21 17:00:54;;;;;;;1.10;1.02;;;21.50;77.80;;;;;;12669928;23;20185;-84
2022/05/21 17:05:57;;;;;;;2.15;1.70;;;21.60;77.30;;;;;;12670046;23;20224;-84
2022/05/21 17:11:00;;;;;;;1.77;1.35;;;21.00;78.30;;;;;;12692139;23;20185;-84
2022/05/21 17:16:02;;;;;;;2.17;1.55;;;21.30;78.50;;;;;;12693707;23;20189;-85
2022/05/21 17:21:11;;;;;;;1.25;1.15;;;21.60;77.60;;;;;;12692598;23;20516;-84
2022/05/21 17:26:14;;;;;;;2.00;1.10;;;21.80;77.20;;;;;;12668399;23;20184;-84
2022/05/21 17:31:17;;;;;;;2.33;1.60;;;21.70;77.00;;;;;;12670404;23;20177;-85
2022/05/21 17:36:20;;;;;;;1.85;1.33;;;21.60;79.00;;;;;;12667711;23;20204;-84
2022/05/21 17:41:26;;;;;;;1.10;1.00;;;21.40;78.10;;;;;;12692106;23;20256;-85
2022/05/21 17:46:28;;;;;;;1.67;1.42;;;21.50;77.70;;;;;;12667245;23;20323;-83
2022/05/21 17:51:31;;;;;;;3.63;1.42;;;21.40;77.60;;;;;;12668876;23;20220;-82
2022/05/21 17:56:34;;;;;;;1.38;1.27;;;21.50;77.60;;;;;;12667027;23;20527;-83
2022/05/21 18:01:36;;;;;;;1.85;1.50;;;21.40;77.90;;;;;;12692276;23;20180;-83
2022/05/21 18:06:39;;;;;;;4.30;1.95;;;20.70;80.60;;;;;;12666260;23;20184;-83
2022/05/21 18:11:42;;;;;;;5.35;2.17;;;20.20;86.60;;;;;;12667511;23;20177;-85
2022/05/21 18:22:25;;;;;;;1.60;1.30;;;21.00;83.30;;;;;;12683405;23;20173;-85
2022/05/21 18:27:28;;;;;;;2.58;1.90;;;21.10;82.70;;;;;;12669549;23;20177;-85
2022/05/21 18:32:31;;;;;;;1.92;1.58;;;21.10;82.30;;;;;;12666097;23;20235;-85
2022/05/21 18:37:33;;;;;;;1.83;1.63;;;21.20;82.00;;;;;;12666633;23;20236;-84
2022/05/21 18:42:39;;;;;;;1.30;1.20;;;21.20;81.80;;;;;;12670503;23;20549;-84
2022/05/21 18:47:42;;;;;;;1.60;1.30;;;21.20;81.60;;;;;;12666043;23;20558;-83
2022/05/21 18:52:45;;;;;;;1.73;1.20;;;21.20;81.60;;;;;;12664760;23;20256;-83
2022/05/21 18:57:52;;;;;;;3.75;1.70;;;21.10;81.70;;;;;;12686715;23;20196;-84
2022/05/21 19:02:57;;;;;;;2.40;1.45;;;20.90;82.30;;;;;;12680537;23;20174;-84
2022/05/21 19:08:00;;;;;;;1.52;1.33;;;21.00;81.70;;;;;;12663577;23;20796;-84
2022/05/21 19:13:03;;;;;;;4.70;1.40;;;20.90;81.80;;;;;;12663007;23;20177;-83
2022/05/21 19:19:11;;;;;;;1.85;1.13;;;20.80;81.90;;;;;;12662150;23;20227;-84
2022/05/21 19:23:29;;;;;;;2.17;1.50;;;20.40;82.10;;;;;;12685838;23;20231;-84
2022/05/21 19:28:32;;;;;;;3.22;2.03;;;20.50;81.50;;;;;;12689056;23;20188;-84
2022/05/21 19:33:34;;;;;;;1.30;1.17;;;20.40;82.60;;;;;;12664299;23;20498;-84
2022/05/21 19:38:38;;;;;;;2.25;1.08;;;20.40;83.90;;;;;;12662680;23;20205;-84
2022/05/21 19:43:49;;;;;;;1.30;1.20;;;18.90;86.50;;;;;;12663362;23;20181;-85
2022/05/21 19:48:53;;;;;;;1.50;1.05;;;19.70;85.00;;;;;;12681877;23;20201;-85
2022/05/21 19:53:55;;;;;;;2.08;1.45;;;20.20;84.20;;;;;;12662536;23;20169;-84
2022/05/21 19:58:57;;;;;;;2.05;1.20;;;20.50;83.30;;;;;;12664629;23;20185;-84
2022/05/21 20:04:00;;;;;;;2.10;1.40;;;20.50;82.10;;;;;;12665945;23;20161;-84
2022/05/21 20:09:05;;;;;;;2.22;0.70;;;20.70;82.60;;;;;;12691379;23;20169;-84
2022/05/21 20:14:07;;;;;;;2.15;1.42;;;19.00;82.80;;;;;;12687697;23;20177;-84
2022/05/21 20:19:11;;;;;;;1.90;1.77;;;19.50;86.40;;;;;;12666366;23;20209;-84
2022/05/21 20:24:13;;;;;;;1.60;1.20;;;20.10;84.70;;;;;;12665317;23;20182;-83
2022/05/21 20:29:16;;;;;;;1.15;1.05;;;20.40;83.30;;;;;;12707502;23;20489;-84
2022/05/21 20:34:18;;;;;;;1.08;0.95;;;20.10;84.20;;;;;;12667769;23;20200;-83
2022/05/21 20:39:22;;;;;;;4.97;1.00;;;20.40;83.10;;;;;;12667783;23;20600;-84
2022/05/21 20:44:24;;;;;;;2.13;1.20;;;20.60;82.30;;;;;;12666821;23;20170;-84
2022/05/21 20:49:36;;;;;;;1.25;0.98;;;20.70;81.80;;;;;;12710525;23;20240;-83
2022/05/21 20:54:40;;;;;;;2.33;0.93;;;20.80;81.20;;;;;;12684371;23;20197;-85
2022/05/21 20:59:48;;;;;;;1.58;1.10;;;20.50;81.80;;;;;;12668595;23;20177;-84
2022/05/21 21:04:50;;;;;;;1.63;1.05;;;20.60;81.50;;;;;;12688632;23;20473;-84
2022/05/21 21:09:56;;;;;;;2.22;1.30;;;20.20;81.40;;;;;;12668105;23;20220;-85
2022/05/21 21:14:59;;;;;;;2.20;1.20;;;19.80;83.80;;;;;;12670734;23;20186;-85
2022/05/21 21:20:01;;;;;;;1.77;1.20;;;20.00;83.80;;;;;;12670524;23;20165;-85
2022/05/21 21:25:05;;;;;;;1.27;0.90;;;20.40;82.50;;;;;;12692257;23;20241;-85
2022/05/21 21:30:10;;;;;;;1.77;1.17;;;20.70;81.20;;;;;;12668948;23;20173;-85
2022/05/21 21:35:12;;;;;;;2.20;1.42;;;19.90;83.70;;;;;;12669949;23;20244;-84
2022/05/21 21:40:18;;;;;;;2.35;0.95;;;20.20;82.70;;;;;;12688957;23;20533;-85
2022/05/21 21:45:21;;;;;;;1.58;1.10;;;20.10;82.70;;;;;;12692040;23;20228;-85
2022/05/21 21:50:23;;;;;;;1.83;1.15;;;20.00;83.30;;;;;;12685803;23;20173;-85
2022/05/21 21:55:26;;;;;;;3.65;1.55;;;20.40;82.10;;;;;;12642897;23;20228;-84
2022/05/21 22:06:08;;;;;;;2.35;1.20;;;19.50;84.90;;;;;;12686937;23;20224;-85
2022/05/21 22:11:10;;;;;;;2.38;1.10;;;20.30;82.60;;;;;;12669086;23;20177;-86
2022/05/21 22:16:14;;;;;;;2.28;1.20;;;20.40;81.50;;;;;;12669254;23;20216;-85
2022/05/21 22:21:16;;;;;;;3.45;1.20;;;20.50;81.90;;;;;;12641882;23;20644;-84
2022/05/21 22:26:19;;;;;;;1.23;1.13;;;20.30;82.20;;;;;;12668815;23;20519;-84
2022/05/21 22:31:21;;;;;;;4.57;0.98;;;20.40;82.00;;;;;;12643771;23;20508;-84
2022/05/21 22:36:28;;;;;;;2.67;0.95;;;20.60;81.60;;;;;;12668832;23;20862;-84
2022/05/21 22:41:31;;;;;;;4.55;1.65;;;18.40;87.30;;;;;;12671393;23;20197;-85
2022/05/21 22:46:36;;;;;;;1.38;0.90;;;18.30;88.80;;;;;;12668597;23;20173;-84
2022/05/21 22:51:39;;;;;;;0.90;0.90;;;18.90;88.40;;;;;;12667560;23;20236;-84
2022/05/21 22:56:42;;;;;;;1.75;1.27;;;19.70;85.80;;;;;;12667194;23;20189;-84
2022/05/21 23:01:44;;;;;;;2.60;1.08;;;19.60;84.80;;;;;;12691069;23;20185;-84
2022/05/21 23:06:46;;;;;;;1.20;1.00;;;19.80;84.50;;;;;;12692489;23;20184;-85
2022/05/21 23:11:49;;;;;;;1.17;1.08;;;20.40;82.70;;;;;;12667109;23;20197;-84
2022/05/21 23:22:24;;;;;;;2.83;1.30;;;20.60;81.70;;;;;;12668993;23;20169;-84
2022/05/21 23:27:28;;;;;;;2.45;1.33;;;20.70;81.10;;;;;;12675773;23;20514;-85
2022/05/21 23:32:30;;;;;;;1.77;0.95;;;20.80;80.80;;;;;;12668169;23;20209;-84
2022/05/21 23:37:34;;;;;;;2.63;1.38;;;20.80;80.70;;;;;;12669675;23;20256;-84
2022/05/21 23:42:36;;;;;;;1.08;1.02;;;20.70;80.90;;;;;;12676855;23;20357;-84
2022/05/21 23:47:39;;;;;;;1.40;1.30;;;20.80;80.60;;;;;;12673041;23;20173;-84
2022/05/21 23:52:42;;;;;;;1.08;0.90;;;20.80;80.90;;;;;;12672871;23;20259;-84
2022/05/21 23:57:44;;;;;;;1.45;1.10;;;20.70;80.50;;;;;;12672577;23;20664;-84
